createdAt,value
2023-02-09T00:01:21.245Z,103822.19
2023-02-09T00:03:49.088Z,103824.78
2023-02-09T00:06:18.966Z,103824.91
2023-02-09T00:08:47.443Z,103814.31
2023-02-09T00:11:43.707Z,103804.69
2023-02-09T00:14:12.064Z,103815.16
2023-02-09T00:16:39.690Z,103813.38
2023-02-09T00:19:07.360Z,103816.88
2023-02-09T00:21:34.973Z,103819.41
2023-02-09T00:24:02.809Z,103807.09
2023-02-09T00:26:30.739Z,103807.09
2023-02-09T00:28:58.407Z,103805.34
2023-02-09T00:31:26.285Z,103814.00
2023-02-09T00:33:54.145Z,103808.84
2023-02-09T00:36:21.709Z,103796.63
2023-02-09T00:38:49.416Z,103797.34
2023-02-09T00:41:17.190Z,103795.66
2023-02-09T00:43:45.075Z,103803.38
2023-02-09T00:46:12.746Z,103799.69
2023-02-09T00:48:40.695Z,103799.91
2023-02-09T00:51:08.192Z,103809.59
2023-02-09T00:53:36.758Z,103811.13
2023-02-09T00:56:04.781Z,103799.75
2023-02-09T00:58:33.431Z,103793.66
2023-02-09T01:01:01.019Z,103792.66
2023-02-09T01:03:29.221Z,103787.41
2023-02-09T01:05:58.831Z,103791.50
2023-02-09T01:08:27.002Z,103789.69
2023-02-09T01:10:54.546Z,103790.56
2023-02-09T01:13:22.567Z,103794.22
2023-02-09T01:15:50.372Z,103793.28
2023-02-09T01:18:17.963Z,103794.19
2023-02-09T01:20:45.974Z,103798.41
2023-02-09T01:23:15.658Z,103793.06
2023-02-09T01:25:44.581Z,103794.13
2023-02-09T01:28:12.189Z,103796.88
2023-02-09T01:30:40.397Z,103788.00
2023-02-09T01:33:08.230Z,103791.34
2023-02-09T01:35:35.826Z,103791.16
2023-02-09T01:38:03.354Z,103786.84
2023-02-09T01:40:31.294Z,103791.38
2023-02-09T01:42:58.895Z,103790.22
2023-02-09T01:45:59.167Z,103776.19
2023-02-09T01:48:29.071Z,103778.53
2023-02-09T01:51:00.597Z,103781.25
2023-02-09T01:53:28.417Z,103783.09
2023-02-09T01:55:58.555Z,103786.25
2023-02-09T01:58:26.156Z,103781.75
2023-02-09T02:00:54.002Z,103780.19
2023-02-09T02:03:23.562Z,103792.06
2023-02-09T02:05:53.102Z,103794.09
2023-02-09T02:08:21.226Z,103795.00
2023-02-09T02:10:48.769Z,103794.34
2023-02-09T02:13:16.465Z,103797.81
2023-02-09T02:16:10.350Z,103801.03
2023-02-09T02:18:59.945Z,103795.88
2023-02-09T02:21:55.815Z,103788.88
2023-02-09T02:24:45.499Z,103793.25
2023-02-09T02:27:34.776Z,103785.81
2023-02-09T02:30:05.444Z,103791.09
2023-02-09T02:32:54.922Z,103784.78
2023-02-09T02:35:34.304Z,103787.28
2023-02-09T02:38:16.493Z,103786.53
2023-02-09T02:40:54.368Z,103787.56
2023-02-09T02:43:34.031Z,103779.63
2023-02-09T02:46:06.923Z,103784.91
2023-02-09T02:48:44.926Z,103779.13
2023-02-09T02:51:21.466Z,103781.81
2023-02-09T02:53:52.842Z,103779.88
2023-02-09T02:56:46.203Z,103783.56
2023-02-09T02:59:17.205Z,103783.69
2023-02-09T03:02:04.791Z,103796.50
2023-02-09T03:04:32.681Z,103791.25
2023-02-09T03:07:00.429Z,103795.59
2023-02-09T03:09:28.031Z,103794.66
2023-02-09T03:12:21.990Z,103791.00
2023-02-09T03:15:07.216Z,103793.44
2023-02-09T03:18:10.348Z,103791.16
2023-02-09T03:20:47.347Z,103792.22
2023-02-09T03:23:41.009Z,103794.47
2023-02-09T03:26:11.879Z,103787.34
2023-02-09T03:28:39.817Z,103782.69
2023-02-09T03:31:07.826Z,103785.53
2023-02-09T03:33:36.693Z,103794.06
2023-02-09T03:36:08.951Z,103795.81
2023-02-09T03:38:36.737Z,103786.72
2023-02-09T03:41:05.908Z,103786.72
2023-02-09T03:43:57.825Z,103772.97
2023-02-09T03:46:26.018Z,103774.94
2023-02-09T03:48:54.864Z,103777.44
2023-02-09T03:51:22.530Z,103767.09
2023-02-09T03:53:50.090Z,103763.56
2023-02-09T03:56:17.834Z,103770.72
2023-02-09T03:58:45.721Z,103772.75
2023-02-09T04:01:13.486Z,103768.56
2023-02-09T04:03:41.161Z,103770.38
2023-02-09T04:06:10.258Z,103776.03
2023-02-09T04:08:38.091Z,103775.44
2023-02-09T04:11:06.524Z,103776.59
2023-02-09T04:13:35.208Z,103784.03
2023-02-09T04:16:02.836Z,103769.38
2023-02-09T04:18:30.574Z,103779.00
2023-02-09T04:20:58.224Z,103772.34
2023-02-09T04:23:25.874Z,103776.94
2023-02-09T04:25:53.669Z,103780.97
2023-02-09T04:28:21.438Z,103777.13
2023-02-09T04:30:55.523Z,103784.25
2023-02-09T04:33:24.053Z,103790.78
2023-02-09T04:35:52.470Z,103790.78
2023-02-09T04:38:20.768Z,103790.63
2023-02-09T04:40:49.195Z,103789.78
2023-02-09T04:43:17.328Z,103782.00
2023-02-09T04:45:45.031Z,103785.44
2023-02-09T04:48:15.248Z,103786.34
2023-02-09T04:50:43.341Z,103784.88
2023-02-09T04:53:11.507Z,103796.81
2023-02-09T04:55:39.828Z,103797.56
2023-02-09T04:58:26.112Z,103791.47
2023-02-09T05:00:55.514Z,103786.16
2023-02-09T05:03:24.724Z,103790.84
2023-02-09T05:06:01.026Z,103794.31
2023-02-09T05:08:29.406Z,103787.56
2023-02-09T05:10:57.255Z,103783.78
2023-02-09T05:13:25.365Z,103792.75
2023-02-09T05:15:53.171Z,103792.00
2023-02-09T05:18:20.922Z,103797.81
2023-02-09T05:20:48.984Z,103800.44
2023-02-09T05:23:17.075Z,103798.56
2023-02-09T05:25:46.064Z,103788.91
2023-02-09T05:28:13.951Z,103793.75
2023-02-09T05:30:42.126Z,103796.00
2023-02-09T05:33:09.890Z,103797.44
2023-02-09T05:35:37.607Z,103795.88
2023-02-09T05:38:05.386Z,103799.66
2023-02-09T05:40:33.530Z,103792.88
2023-02-09T05:43:02.595Z,103795.78
2023-02-09T05:45:31.020Z,103795.69
2023-02-09T05:47:58.673Z,103790.66
2023-02-09T05:50:27.986Z,103797.47
2023-02-09T05:52:58.392Z,103790.94
2023-02-09T05:55:26.270Z,103794.34
2023-02-09T05:57:53.951Z,103794.19
2023-02-09T06:00:25.341Z,103787.28
2023-02-09T06:02:55.106Z,103783.47
2023-02-09T06:05:22.743Z,103790.06
2023-02-09T06:07:50.887Z,103790.91
2023-02-09T06:10:18.878Z,103789.06
2023-02-09T06:12:48.817Z,103784.94
2023-02-09T06:15:16.782Z,103781.31
2023-02-09T06:17:49.237Z,103780.63
2023-02-09T06:20:17.248Z,103776.22
2023-02-09T06:22:44.842Z,103778.34
2023-02-09T06:25:12.970Z,103773.44
2023-02-09T06:27:40.773Z,103776.41
2023-02-09T06:30:09.274Z,103775.22
2023-02-09T06:32:37.239Z,103775.41
2023-02-09T06:35:05.319Z,103761.47
2023-02-09T06:37:33.481Z,103772.03
2023-02-09T06:40:01.071Z,103772.31
2023-02-09T06:42:43.990Z,103772.09
2023-02-09T06:45:12.911Z,103768.19
2023-02-09T06:47:41.985Z,103769.97
2023-02-09T06:50:10.516Z,103767.72
2023-02-09T06:52:39.024Z,103764.03
2023-02-09T06:55:07.665Z,103764.13
2023-02-09T06:57:37.142Z,103756.47
2023-02-09T07:00:05.843Z,103759.25
2023-02-09T07:02:33.819Z,103757.47
2023-02-09T07:05:01.751Z,103746.03
2023-02-09T07:07:29.483Z,103735.72
2023-02-09T07:09:58.748Z,103733.06
2023-02-09T07:12:26.603Z,103726.97
2023-02-09T07:14:54.182Z,103729.56
2023-02-09T07:17:21.780Z,103727.00
2023-02-09T07:19:49.553Z,103729.63
2023-02-09T07:22:17.283Z,103731.63
2023-02-09T07:24:45.193Z,103734.19
2023-02-09T07:27:13.533Z,103735.16
2023-02-09T07:29:41.327Z,103727.34
2023-02-09T07:32:09.060Z,103723.78
2023-02-09T07:34:37.518Z,103722.09
2023-02-09T07:37:05.314Z,103725.63
2023-02-09T07:39:34.233Z,103717.72
2023-02-09T07:42:02.126Z,103722.13
2023-02-09T07:44:47.203Z,103719.50
2023-02-09T07:47:14.972Z,103723.09
2023-02-09T07:49:42.859Z,103712.47
2023-02-09T07:52:10.871Z,103715.09
2023-02-09T07:54:38.705Z,103715.09
2023-02-09T07:57:06.358Z,103703.59
2023-02-09T07:59:34.707Z,103707.09
2023-02-09T08:02:02.595Z,103707.09
2023-02-09T08:04:31.321Z,103700.75
2023-02-09T08:06:59.222Z,103704.28
2023-02-09T08:09:27.267Z,103699.06
2023-02-09T08:11:57.398Z,103696.34
2023-02-09T08:14:30.530Z,103698.97
2023-02-09T08:17:19.956Z,103700.75
2023-02-09T08:19:51.824Z,103688.19
2023-02-09T08:22:20.165Z,103703.34
2023-02-09T08:24:49.675Z,103697.13
2023-02-09T08:27:17.535Z,103700.69
2023-02-09T08:29:46.943Z,103700.56
2023-02-09T08:32:20.676Z,103693.41
2023-02-09T08:34:48.628Z,103700.59
2023-02-09T08:37:16.554Z,103694.41
2023-02-09T08:39:46.553Z,103695.97
2023-02-09T08:42:14.732Z,103686.16
2023-02-09T08:44:43.338Z,103692.28
2023-02-09T08:47:12.847Z,103693.97
2023-02-09T08:49:41.978Z,103699.47
2023-02-09T08:52:12.021Z,103698.53
2023-02-09T08:54:41.101Z,103696.84
2023-02-09T08:57:09.626Z,103679.16
2023-02-09T08:59:38.631Z,103685.13
2023-02-09T09:02:07.372Z,103681.56
2023-02-09T09:04:35.542Z,103677.94
2023-02-09T09:07:03.685Z,103681.56
2023-02-09T09:09:31.803Z,103674.47
2023-02-09T09:12:00.402Z,103674.25
2023-02-09T09:17:14.154Z,103670.44
2023-02-09T09:19:42.227Z,103657.06
2023-02-09T09:22:10.500Z,103641.88
2023-02-09T09:24:41.067Z,103641.19
2023-02-09T09:27:09.476Z,103643.53
2023-02-09T09:29:40.230Z,103639.78
2023-02-09T09:32:10.681Z,103636.28
2023-02-09T09:34:41.613Z,103634.25
2023-02-09T09:37:15.557Z,103637.53
2023-02-09T09:39:43.820Z,103639.22
2023-02-09T09:45:30.174Z,103620.91
2023-02-09T09:47:58.274Z,103626.38
2023-02-09T09:50:28.844Z,103628.91
2023-02-09T09:53:28.961Z,103624.84
2023-02-09T09:56:04.305Z,103624.06
2023-02-09T09:58:33.571Z,103629.16
2023-02-09T10:01:04.246Z,103622.00
2023-02-09T10:03:33.037Z,103620.97
2023-02-09T10:06:02.286Z,103614.19
2023-02-09T10:08:39.892Z,103617.00
2023-02-09T10:11:14.779Z,103622.00
2023-02-09T10:13:53.489Z,103623.06
2023-02-09T10:16:34.698Z,103615.31
2023-02-09T10:19:04.043Z,103602.47
2023-02-09T10:21:34.739Z,103599.72
2023-02-09T10:24:02.394Z,103599.06
2023-02-09T10:26:34.747Z,103599.25
2023-02-09T10:29:12.469Z,103601.44
2023-02-09T10:31:48.447Z,103584.22
2023-02-09T10:34:18.353Z,103578.66
2023-02-09T10:36:53.618Z,103578.19
2023-02-09T10:39:33.186Z,103573.72
2023-02-09T10:42:27.693Z,103573.22
2023-02-09T10:44:58.576Z,103567.03
2023-02-09T10:47:27.770Z,103568.75
2023-02-09T10:50:05.745Z,103563.97
2023-02-09T10:52:35.818Z,103571.31
2023-02-09T10:55:16.536Z,103568.75
2023-02-09T10:57:44.470Z,103561.00
2023-02-09T11:00:15.653Z,103567.91
2023-02-09T11:02:53.389Z,103550.84
2023-02-09T11:05:21.542Z,103545.47
2023-02-09T11:08:01.708Z,103535.13
2023-02-09T11:10:30.612Z,103528.47
2023-02-09T11:13:00.317Z,103525.94
2023-02-09T11:15:30.764Z,103522.19
2023-02-09T11:18:20.683Z,103528.78
2023-02-09T11:20:59.066Z,103522.56
2023-02-09T11:23:44.770Z,103512.38
2023-02-09T11:26:16.060Z,103514.47
2023-02-09T11:29:18.772Z,103501.41
2023-02-09T11:32:07.313Z,103505.56
2023-02-09T11:35:13.118Z,103503.78
2023-02-09T11:37:50.251Z,103494.75
2023-02-09T11:40:43.213Z,103488.94
2023-02-09T11:43:11.394Z,103488.09
2023-02-09T11:46:11.379Z,103485.00
2023-02-09T11:48:47.146Z,103484.28
2023-02-09T11:51:17.773Z,103481.16
2023-02-09T11:53:54.120Z,103481.06
2023-02-09T11:56:23.658Z,103485.44
2023-02-09T11:58:57.481Z,103478.47
2023-02-09T12:02:05.154Z,103484.50
2023-02-09T12:04:42.403Z,103487.91
2023-02-09T12:07:22.021Z,103481.03
2023-02-09T12:10:30.334Z,103478.09
2023-02-09T12:13:13.178Z,103471.00
2023-02-09T12:15:51.327Z,103472.81
2023-02-09T12:18:26.935Z,103472.34
2023-02-09T12:20:56.565Z,103457.28
2023-02-09T12:23:33.515Z,103462.22
2023-02-09T12:26:12.240Z,103457.78
2023-02-09T12:28:44.864Z,103454.69
2023-02-09T12:31:21.236Z,103464.88
2023-02-09T12:33:49.071Z,103457.72
2023-02-09T12:36:16.828Z,103465.19
2023-02-09T12:39:07.377Z,103456.63
2023-02-09T12:41:40.907Z,103468.34
2023-02-09T12:44:10.504Z,103460.72
2023-02-09T12:46:45.432Z,103461.00
2023-02-09T12:49:13.952Z,103449.88
2023-02-09T12:51:50.817Z,103450.81
2023-02-09T12:54:42.727Z,103455.28
2023-02-09T12:57:17.307Z,103463.84
2023-02-09T12:59:55.518Z,103456.03
2023-02-09T13:02:50.496Z,103451.50
2023-02-09T13:05:29.184Z,103454.63
2023-02-09T13:07:59.833Z,103442.38
2023-02-09T13:10:51.047Z,103440.09
2023-02-09T13:13:36.901Z,103448.19
2023-02-09T13:16:04.638Z,103454.69
2023-02-09T13:19:09.390Z,103442.41
2023-02-09T13:21:59.666Z,103431.75
2023-02-09T13:25:08.603Z,103430.06
2023-02-09T13:27:46.562Z,103426.88
2023-02-09T13:30:31.216Z,103443.22
2023-02-09T13:33:25.009Z,103441.72
2023-02-09T13:36:09.173Z,103433.16
2023-02-09T13:38:43.900Z,103440.88
2023-02-09T13:41:26.180Z,103447.78
2023-02-09T13:43:54.174Z,103432.22
2023-02-09T13:46:27.439Z,103442.41
2023-02-09T13:48:55.684Z,103436.22
2023-02-09T13:51:23.743Z,103434.81
2023-02-09T13:54:01.212Z,103440.97
2023-02-09T13:56:30.124Z,103443.94
2023-02-09T13:58:57.779Z,103445.81
2023-02-09T14:01:33.629Z,103442.94
2023-02-09T14:04:15.784Z,103450.53
2023-02-09T14:06:48.868Z,103450.09
2023-02-09T14:09:20.598Z,103444.00
2023-02-09T14:11:51.147Z,103451.22
2023-02-09T14:14:54.468Z,103445.50
2023-02-09T14:17:27.507Z,103439.59
2023-02-09T14:19:56.434Z,103431.66
2023-02-09T14:22:34.320Z,103441.13
2023-02-09T14:25:15.216Z,103434.13
2023-02-09T14:27:46.563Z,103427.56
2023-02-09T14:30:27.790Z,103429.56
2023-02-09T14:32:57.112Z,103431.72
2023-02-09T14:35:29.463Z,103422.03
2023-02-09T14:37:59.236Z,103422.03
2023-02-09T14:40:26.745Z,103417.66
2023-02-09T14:43:12.956Z,103420.88
2023-02-09T14:45:48.393Z,103425.88
2023-02-09T14:48:18.078Z,103427.53
2023-02-09T14:50:46.851Z,103424.69
2023-02-09T14:53:15.614Z,103423.41
2023-02-09T14:55:44.827Z,103426.09
2023-02-09T14:58:22.549Z,103423.38
2023-02-09T15:00:51.207Z,103419.03
2023-02-09T15:03:18.941Z,103424.66
2023-02-09T15:05:51.364Z,103425.63
2023-02-09T15:08:20.883Z,103423.00
2023-02-09T15:10:53.748Z,103422.28
2023-02-09T15:13:21.727Z,103428.78
2023-02-09T15:15:53.668Z,103430.78
2023-02-09T15:18:23.448Z,103434.66
2023-02-09T15:20:51.092Z,103432.22
2023-02-09T15:23:18.996Z,103436.88
2023-02-09T15:25:47.046Z,103439.72
2023-02-09T15:28:20.137Z,103438.13
2023-02-09T15:30:48.296Z,103440.09
2023-02-09T15:33:16.143Z,103443.75
2023-02-09T15:35:44.830Z,103448.13
2023-02-09T15:38:14.129Z,103447.28
2023-02-09T15:41:02.125Z,103439.28
2023-02-09T15:43:48.387Z,103440.97
2023-02-09T15:46:34.708Z,103435.47
2023-02-09T15:49:02.477Z,103422.84
2023-02-09T15:51:34.101Z,103427.09
2023-02-09T15:54:08.057Z,103425.13
2023-02-09T15:56:38.702Z,103425.81
2023-02-09T15:59:06.469Z,103419.53
2023-02-09T16:01:34.730Z,103421.19
2023-02-09T16:04:14.036Z,103416.00
2023-02-09T16:06:49.958Z,103409.47
2023-02-09T16:09:26.974Z,103403.97
2023-02-09T16:11:57.453Z,103402.16
2023-02-09T16:14:26.850Z,103406.41
2023-02-09T16:16:54.673Z,103396.53
2023-02-09T16:19:22.456Z,103399.91
2023-02-09T16:21:52.032Z,103394.50
2023-02-09T16:24:37.262Z,103395.28
2023-02-09T16:27:13.523Z,103387.22
2023-02-09T16:29:41.145Z,103389.81
2023-02-09T16:32:19.582Z,103388.75
2023-02-09T16:34:47.319Z,103384.31
2023-02-09T16:37:16.271Z,103389.47
2023-02-09T16:39:44.376Z,103385.84
2023-02-09T16:42:12.909Z,103388.53
2023-02-09T16:44:41.877Z,103393.75
2023-02-09T16:47:23.762Z,103402.47
2023-02-09T16:49:58.430Z,103403.31
2023-02-09T16:52:26.413Z,103396.25
2023-02-09T16:54:56.407Z,103397.88
2023-02-09T16:57:24.797Z,103394.34
2023-02-09T16:59:52.789Z,103387.44
2023-02-09T17:02:40.940Z,103395.72
2023-02-09T17:05:25.980Z,103398.78
2023-02-09T17:08:00.937Z,103393.19
2023-02-09T17:10:30.932Z,103383.25
2023-02-09T17:12:59.279Z,103388.78
2023-02-09T17:15:30.982Z,103392.16
2023-02-09T17:18:02.713Z,103390.31
2023-02-09T17:20:36.238Z,103386.06
2023-02-09T17:23:03.898Z,103386.81
2023-02-09T17:25:32.160Z,103389.25
2023-02-09T17:28:00.163Z,103386.53
2023-02-09T17:30:27.792Z,103391.09
2023-02-09T17:32:59.806Z,103383.66
2023-02-09T17:35:53.097Z,103392.53
2023-02-09T17:38:24.453Z,103390.72
2023-02-09T17:40:53.444Z,103393.25
2023-02-09T17:43:21.087Z,103398.03
2023-02-09T17:45:51.388Z,103390.75
2023-02-09T17:48:20.897Z,103386.97
2023-02-09T17:50:58.003Z,103391.13
2023-02-09T17:53:33.991Z,103392.84
2023-02-09T17:56:04.444Z,103390.09
2023-02-09T17:58:33.425Z,103386.56
2023-02-09T18:01:02.676Z,103402.66
2023-02-09T18:03:30.630Z,103398.25
2023-02-09T18:06:01.947Z,103389.34
2023-02-09T18:08:31.655Z,103385.81
2023-02-09T18:11:00.203Z,103384.25
2023-02-09T18:13:30.097Z,103384.00
2023-02-09T18:16:04.064Z,103383.91
2023-02-09T18:18:33.330Z,103385.56
2023-02-09T18:21:02.256Z,103394.41
2023-02-09T18:23:32.993Z,103387.34
2023-02-09T18:26:04.707Z,103394.81
2023-02-09T18:28:35.775Z,103387.06
2023-02-09T18:31:07.463Z,103385.09
2023-02-09T18:33:35.935Z,103379.53
2023-02-09T18:36:06.183Z,103384.69
2023-02-09T18:38:37.470Z,103375.63
2023-02-09T18:41:13.484Z,103374.06
2023-02-09T18:43:41.468Z,103371.28
2023-02-09T18:46:16.128Z,103369.44
2023-02-09T18:48:44.812Z,103366.72
2023-02-09T18:51:22.669Z,103370.59
2023-02-09T18:53:51.591Z,103363.19
2023-02-09T18:56:20.942Z,103366.72
2023-02-09T18:58:50.610Z,103371.28
2023-02-09T19:01:26.966Z,103366.91
2023-02-09T19:03:59.531Z,103368.81
2023-02-09T19:06:28.999Z,103365.78
2023-02-09T19:08:58.458Z,103358.19
2023-02-09T19:11:28.675Z,103354.00
2023-02-09T19:14:15.916Z,103346.25
2023-02-09T19:16:47.046Z,103348.91
2023-02-09T19:19:16.346Z,103354.56
2023-02-09T19:21:44.480Z,103349.16
2023-02-09T19:24:12.867Z,103350.16
2023-02-09T19:26:41.549Z,103348.16
2023-02-09T19:29:10.886Z,103344.41
2023-02-09T19:31:42.642Z,103346.94
2023-02-09T19:34:13.293Z,103336.22
2023-02-09T19:36:44.720Z,103333.19
2023-02-09T19:39:14.170Z,103330.72
2023-02-09T19:41:44.736Z,103334.16
2023-02-09T19:44:12.896Z,103327.63
2023-02-09T19:46:44.626Z,103319.00
2023-02-09T19:49:16.172Z,103322.41
2023-02-09T19:51:45.732Z,103317.22
2023-02-09T19:54:14.517Z,103317.13
2023-02-09T19:56:45.558Z,103320.78
2023-02-09T19:59:16.194Z,103313.78
2023-02-09T20:01:45.749Z,103318.16
2023-02-09T20:04:15.262Z,103316.38
2023-02-09T20:06:43.913Z,103310.97
2023-02-09T20:09:13.409Z,103298.47
2023-02-09T20:11:44.315Z,103298.56
2023-02-09T20:14:22.399Z,103302.13
2023-02-09T20:16:56.952Z,103300.41
2023-02-09T20:19:26.197Z,103299.22
2023-02-09T20:21:56.248Z,103296.84
2023-02-09T20:24:25.655Z,103285.91
2023-02-09T20:26:53.755Z,103292.09
2023-02-09T20:29:23.197Z,103293.91
2023-02-09T20:31:52.255Z,103288.66
2023-02-09T20:34:20.590Z,103287.69
2023-02-09T20:36:49.401Z,103292.94
2023-02-09T20:39:18.291Z,103291.03
2023-02-09T20:42:05.694Z,103296.25
2023-02-09T20:44:53.083Z,103291.78
2023-02-09T20:47:20.962Z,103294.44
2023-02-09T20:49:49.379Z,103293.50
2023-02-09T20:52:19.664Z,103294.44
2023-02-09T20:54:49.750Z,103290.97
2023-02-09T20:57:20.723Z,103292.00
2023-02-09T20:59:48.509Z,103292.09
2023-02-09T21:02:17.106Z,103298.31
2023-02-09T21:04:45.233Z,103298.56
2023-02-09T21:07:14.766Z,103299.22
2023-02-09T21:09:45.621Z,103300.03
2023-02-09T21:12:24.922Z,103299.91
2023-02-09T21:14:53.777Z,103291.09
2023-02-09T21:17:22.844Z,103298.41
2023-02-09T21:19:51.065Z,103294.91
2023-02-09T21:22:18.957Z,103292.31
2023-02-09T21:24:47.840Z,103296.53
2023-02-09T21:27:15.412Z,103297.38
2023-02-09T21:29:43.098Z,103298.19
2023-02-09T21:32:10.743Z,103295.50
2023-02-09T21:34:38.577Z,103297.19
2023-02-09T21:37:10.270Z,103295.34
2023-02-09T21:39:40.092Z,103298.91
2023-02-09T21:42:28.907Z,103296.47
2023-02-09T21:44:57.103Z,103292.09
2023-02-09T21:47:34.782Z,103297.34
2023-02-09T21:50:02.918Z,103297.56
2023-02-09T21:52:31.762Z,103286.75
2023-02-09T21:54:59.751Z,103298.19
2023-02-09T21:57:28.109Z,103298.56
2023-02-09T21:59:56.264Z,103298.41
2023-02-09T22:02:24.255Z,103289.41
2023-02-09T22:04:52.790Z,103292.22
2023-02-09T22:07:20.413Z,103295.06
2023-02-09T22:09:50.249Z,103288.13
2023-02-09T22:12:17.837Z,103290.28
2023-02-09T22:14:45.482Z,103284.94
2023-02-09T22:17:13.024Z,103288.44
2023-02-09T22:19:40.745Z,103284.97
2023-02-09T22:22:09.465Z,103281.47
2023-02-09T22:24:37.418Z,103286.00
2023-02-09T22:27:05.545Z,103286.97
2023-02-09T22:29:34.568Z,103295.09
2023-02-09T22:32:02.247Z,103290.66
2023-02-09T22:34:30.029Z,103284.44
2023-02-09T22:36:57.643Z,103276.63
2023-02-09T22:39:26.029Z,103273.81
2023-02-09T22:41:59.455Z,103273.72
2023-02-09T22:44:28.227Z,103270.91
2023-02-09T22:46:56.897Z,103274.47
2023-02-09T22:49:25.224Z,103260.19
2023-02-09T22:51:53.238Z,103260.06
2023-02-09T22:54:21.384Z,103260.88
2023-02-09T22:56:49.052Z,103257.25
2023-02-09T22:59:16.671Z,103259.97
2023-02-09T23:01:44.574Z,103250.16
2023-02-09T23:04:12.809Z,103250.31
2023-02-09T23:06:40.766Z,103253.88
2023-02-09T23:09:08.905Z,103256.78
2023-02-09T23:11:36.652Z,103253.38
2023-02-09T23:14:10.224Z,103257.91
2023-02-09T23:16:39.697Z,103253.50
2023-02-09T23:19:08.563Z,103252.81
2023-02-09T23:21:38.015Z,103251.06
2023-02-09T23:24:10.271Z,103250.31
2023-02-09T23:26:37.934Z,103257.34
2023-02-09T23:29:07.133Z,103247.50
2023-02-09T23:31:35.894Z,103258.25
2023-02-09T23:34:03.621Z,103253.72
2023-02-09T23:36:32.364Z,103248.47
2023-02-09T23:39:04.766Z,103249.44
2023-02-09T23:41:36.494Z,103251.25
2023-02-09T23:44:07.751Z,103249.22
2023-02-09T23:46:39.229Z,103245.78
2023-02-09T23:49:06.938Z,103246.06
2023-02-09T23:51:37.020Z,103251.66
2023-02-09T23:54:07.075Z,103237.44
2023-02-09T23:56:42.287Z,103243.66
2023-02-09T23:59:13.013Z,103241.94
